sensor_id;sensor_type;location;lat;lon;timestamp;P1;durP1;ratioP1;P2;durP2;ratioP2
12385;SDS011;6257;57.634;18.310;2022-12-16T00:01:03;2.47;;;1.03;;
12385;SDS011;6257;57.634;18.310;2022-12-16T00:03:34;1.37;;;1.03;;
12385;SDS011;6257;57.634;18.310;2022-12-16T00:06:01;0.70;;;0.70;;
12385;SDS011;6257;57.634;18.310;2022-12-16T00:08:30;1.53;;;0.90;;
12385;SDS011;6257;57.634;18.310;2022-12-16T00:10:59;3.33;;;0.83;;
12385;SDS011;6257;57.634;18.310;2022-12-16T00:13:27;1.70;;;0.93;;
12385;SDS011;6257;57.634;18.310;2022-12-16T00:15:56;1.00;;;0.90;;
12385;SDS011;6257;57.634;18.310;2022-12-16T00:18:23;1.00;;;0.90;;
12385;SDS011;6257;57.634;18.310;2022-12-16T00:20:51;1.07;;;0.80;;
12385;SDS011;6257;57.634;18.310;2022-12-16T00:23:19;1.30;;;1.07;;
12385;SDS011;6257;57.634;18.310;2022-12-16T00:25:46;1.47;;;0.97;;
12385;SDS011;6257;57.634;18.310;2022-12-16T00:28:15;1.33;;;1.00;;
12385;SDS011;6257;57.634;18.310;2022-12-16T00:30:43;1.20;;;0.90;;
12385;SDS011;6257;57.634;18.310;2022-12-16T00:33:13;0.87;;;0.70;;
12385;SDS011;6257;57.634;18.310;2022-12-16T00:35:40;0.80;;;0.80;;
12385;SDS011;6257;57.634;18.310;2022-12-16T00:38:07;1.07;;;0.80;;
12385;SDS011;6257;57.634;18.310;2022-12-16T00:40:34;0.73;;;0.73;;
12385;SDS011;6257;57.634;18.310;2022-12-16T00:43:01;1.00;;;0.80;;
12385;SDS011;6257;57.634;18.310;2022-12-16T00:45:29;1.73;;;0.90;;
12385;SDS011;6257;57.634;18.310;2022-12-16T00:47:57;1.17;;;1.03;;
12385;SDS011;6257;57.634;18.310;2022-12-16T00:50:24;1.30;;;0.80;;
12385;SDS011;6257;57.634;18.310;2022-12-16T00:52:51;1.30;;;1.00;;
12385;SDS011;6257;57.634;18.310;2022-12-16T00:55:18;1.07;;;0.80;;
12385;SDS011;6257;57.634;18.310;2022-12-16T00:57:45;0.83;;;0.77;;
12385;SDS011;6257;57.634;18.310;2022-12-16T01:00:13;0.77;;;0.77;;
12385;SDS011;6257;57.634;18.310;2022-12-16T01:02:44;1.20;;;0.90;;
12385;SDS011;6257;57.634;18.310;2022-12-16T01:05:13;0.90;;;0.70;;
12385;SDS011;6257;57.634;18.310;2022-12-16T01:07:41;1.13;;;0.67;;
12385;SDS011;6257;57.634;18.310;2022-12-16T01:10:09;0.97;;;0.77;;
12385;SDS011;6257;57.634;18.310;2022-12-16T01:12:37;1.60;;;0.80;;
12385;SDS011;6257;57.634;18.310;2022-12-16T01:15:05;1.10;;;0.80;;
12385;SDS011;6257;57.634;18.310;2022-12-16T01:17:33;0.90;;;0.70;;
12385;SDS011;6257;57.634;18.310;2022-12-16T01:20:02;1.20;;;0.93;;
12385;SDS011;6257;57.634;18.310;2022-12-16T01:22:31;0.60;;;0.60;;
12385;SDS011;6257;57.634;18.310;2022-12-16T01:24:59;0.80;;;0.80;;
12385;SDS011;6257;57.634;18.310;2022-12-16T01:27:26;1.17;;;0.80;;
12385;SDS011;6257;57.634;18.310;2022-12-16T01:29:54;0.70;;;0.70;;
12385;SDS011;6257;57.634;18.310;2022-12-16T01:32:21;1.00;;;0.87;;
12385;SDS011;6257;57.634;18.310;2022-12-16T01:34:49;0.93;;;0.83;;
12385;SDS011;6257;57.634;18.310;2022-12-16T01:37:18;1.10;;;0.90;;
12385;SDS011;6257;57.634;18.310;2022-12-16T01:39:45;1.43;;;1.20;;
12385;SDS011;6257;57.634;18.310;2022-12-16T01:42:13;1.33;;;0.97;;
12385;SDS011;6257;57.634;18.310;2022-12-16T01:44:43;1.47;;;1.00;;
12385;SDS011;6257;57.634;18.310;2022-12-16T01:47:13;2.70;;;1.20;;
12385;SDS011;6257;57.634;18.310;2022-12-16T01:49:42;1.53;;;1.00;;
12385;SDS011;6257;57.634;18.310;2022-12-16T01:52:12;1.10;;;0.90;;
12385;SDS011;6257;57.634;18.310;2022-12-16T01:54:46;2.20;;;0.90;;
12385;SDS011;6257;57.634;18.310;2022-12-16T01:57:18;1.70;;;0.90;;
12385;SDS011;6257;57.634;18.310;2022-12-16T01:59:49;0.60;;;0.60;;
12385;SDS011;6257;57.634;18.310;2022-12-16T02:02:19;1.03;;;0.90;;
12385;SDS011;6257;57.634;18.310;2022-12-16T02:04:47;1.27;;;0.90;;
12385;SDS011;6257;57.634;18.310;2022-12-16T02:07:28;1.10;;;0.90;;
12385;SDS011;6257;57.634;18.310;2022-12-16T02:09:56;1.97;;;1.00;;
12385;SDS011;6257;57.634;18.310;2022-12-16T02:12:25;1.43;;;0.93;;
12385;SDS011;6257;57.634;18.310;2022-12-16T02:14:59;1.03;;;0.90;;
12385;SDS011;6257;57.634;18.310;2022-12-16T02:17:40;1.00;;;0.90;;
12385;SDS011;6257;57.634;18.310;2022-12-16T02:23:27;1.17;;;1.07;;
12385;SDS011;6257;57.634;18.310;2022-12-16T02:26:40;1.40;;;0.93;;
12385;SDS011;6257;57.634;18.310;2022-12-16T02:29:32;1.40;;;1.20;;
12385;SDS011;6257;57.634;18.310;2022-12-16T02:32:24;1.30;;;1.10;;
12385;SDS011;6257;57.634;18.310;2022-12-16T02:34:58;1.70;;;1.17;;
12385;SDS011;6257;57.634;18.310;2022-12-16T02:37:36;1.90;;;1.23;;
12385;SDS011;6257;57.634;18.310;2022-12-16T02:40:08;3.13;;;1.20;;
12385;SDS011;6257;57.634;18.310;2022-12-16T02:42:43;1.87;;;1.17;;
12385;SDS011;6257;57.634;18.310;2022-12-16T02:45:16;1.40;;;1.07;;
12385;SDS011;6257;57.634;18.310;2022-12-16T02:47:46;1.00;;;0.90;;
12385;SDS011;6257;57.634;18.310;2022-12-16T02:50:16;1.10;;;1.00;;
12385;SDS011;6257;57.634;18.310;2022-12-16T02:52:45;1.30;;;0.87;;
12385;SDS011;6257;57.634;18.310;2022-12-16T02:55:13;1.30;;;0.90;;
12385;SDS011;6257;57.634;18.310;2022-12-16T02:57:54;2.37;;;1.00;;
12385;SDS011;6257;57.634;18.310;2022-12-16T03:00:31;1.43;;;1.00;;
12385;SDS011;6257;57.634;18.310;2022-12-16T03:03:07;1.33;;;0.90;;
12385;SDS011;6257;57.634;18.310;2022-12-16T03:05:40;1.47;;;0.90;;
12385;SDS011;6257;57.634;18.310;2022-12-16T03:08:13;2.00;;;0.83;;
12385;SDS011;6257;57.634;18.310;2022-12-16T03:10:45;0.80;;;0.80;;
12385;SDS011;6257;57.634;18.310;2022-12-16T03:13:16;1.27;;;0.87;;
12385;SDS011;6257;57.634;18.310;2022-12-16T03:15:45;1.73;;;0.93;;
12385;SDS011;6257;57.634;18.310;2022-12-16T03:18:15;0.90;;;0.80;;
12385;SDS011;6257;57.634;18.310;2022-12-16T03:20:44;2.13;;;0.60;;
12385;SDS011;6257;57.634;18.310;2022-12-16T03:23:19;1.60;;;0.93;;
12385;SDS011;6257;57.634;18.310;2022-12-16T03:25:50;0.93;;;0.73;;
12385;SDS011;6257;57.634;18.310;2022-12-16T03:28:27;1.57;;;1.00;;
12385;SDS011;6257;57.634;18.310;2022-12-16T03:31:04;1.20;;;0.70;;
12385;SDS011;6257;57.634;18.310;2022-12-16T03:33:38;1.13;;;0.80;;
12385;SDS011;6257;57.634;18.310;2022-12-16T03:36:11;0.60;;;0.60;;
12385;SDS011;6257;57.634;18.310;2022-12-16T03:38:42;0.83;;;0.70;;
12385;SDS011;6257;57.634;18.310;2022-12-16T03:41:12;0.60;;;0.60;;
12385;SDS011;6257;57.634;18.310;2022-12-16T03:43:41;0.70;;;0.60;;
12385;SDS011;6257;57.634;18.310;2022-12-16T03:46:09;1.30;;;0.80;;
12385;SDS011;6257;57.634;18.310;2022-12-16T03:48:45;0.90;;;0.60;;
12385;SDS011;6257;57.634;18.310;2022-12-16T03:51:14;0.60;;;0.60;;
12385;SDS011;6257;57.634;18.310;2022-12-16T03:53:41;3.00;;;0.93;;
12385;SDS011;6257;57.634;18.310;2022-12-16T03:56:08;0.73;;;0.70;;
12385;SDS011;6257;57.634;18.310;2022-12-16T03:58:35;1.03;;;0.63;;
12385;SDS011;6257;57.634;18.310;2022-12-16T04:01:04;1.30;;;1.00;;
12385;SDS011;6257;57.634;18.310;2022-12-16T04:03:31;0.93;;;0.80;;
12385;SDS011;6257;57.634;18.310;2022-12-16T04:06:00;1.03;;;0.73;;
12385;SDS011;6257;57.634;18.310;2022-12-16T04:08:27;1.00;;;0.90;;
12385;SDS011;6257;57.634;18.310;2022-12-16T04:10:54;1.23;;;0.87;;
12385;SDS011;6257;57.634;18.310;2022-12-16T04:13:39;0.77;;;0.77;;
12385;SDS011;6257;57.634;18.310;2022-12-16T04:16:23;1.63;;;1.00;;
12385;SDS011;6257;57.634;18.310;2022-12-16T04:19:20;1.43;;;1.00;;
12385;SDS011;6257;57.634;18.310;2022-12-16T04:22:11;1.00;;;0.80;;
12385;SDS011;6257;57.634;18.310;2022-12-16T04:25:00;1.30;;;1.00;;
12385;SDS011;6257;57.634;18.310;2022-12-16T04:27:30;0.80;;;0.70;;
12385;SDS011;6257;57.634;18.310;2022-12-16T04:29:57;1.80;;;0.80;;
12385;SDS011;6257;57.634;18.310;2022-12-16T04:32:41;2.53;;;1.00;;
12385;SDS011;6257;57.634;18.310;2022-12-16T04:35:26;0.93;;;0.80;;
12385;SDS011;6257;57.634;18.310;2022-12-16T04:38:11;0.70;;;0.70;;
12385;SDS011;6257;57.634;18.310;2022-12-16T04:40:55;1.10;;;0.90;;
12385;SDS011;6257;57.634;18.310;2022-12-16T04:43:40;0.90;;;0.70;;
12385;SDS011;6257;57.634;18.310;2022-12-16T04:46:24;0.77;;;0.70;;
12385;SDS011;6257;57.634;18.310;2022-12-16T04:49:08;1.13;;;0.70;;
12385;SDS011;6257;57.634;18.310;2022-12-16T04:51:52;2.13;;;0.80;;
12385;SDS011;6257;57.634;18.310;2022-12-16T04:54:38;1.23;;;0.90;;
12385;SDS011;6257;57.634;18.310;2022-12-16T04:57:22;1.87;;;0.83;;
12385;SDS011;6257;57.634;18.310;2022-12-16T05:00:07;1.07;;;0.80;;
12385;SDS011;6257;57.634;18.310;2022-12-16T05:02:52;1.40;;;0.97;;
12385;SDS011;6257;57.634;18.310;2022-12-16T05:05:36;1.07;;;0.70;;
12385;SDS011;6257;57.634;18.310;2022-12-16T05:08:21;2.43;;;1.23;;
12385;SDS011;6257;57.634;18.310;2022-12-16T05:11:07;1.70;;;1.10;;
12385;SDS011;6257;57.634;18.310;2022-12-16T05:13:51;1.40;;;0.80;;
12385;SDS011;6257;57.634;18.310;2022-12-16T05:16:35;0.80;;;0.80;;
12385;SDS011;6257;57.634;18.310;2022-12-16T05:19:19;3.43;;;1.00;;
12385;SDS011;6257;57.634;18.310;2022-12-16T05:22:04;2.10;;;1.20;;
12385;SDS011;6257;57.634;18.310;2022-12-16T05:24:48;1.30;;;1.03;;
12385;SDS011;6257;57.634;18.310;2022-12-16T05:27:34;1.10;;;1.00;;
12385;SDS011;6257;57.634;18.310;2022-12-16T05:30:19;1.40;;;1.07;;
12385;SDS011;6257;57.634;18.310;2022-12-16T05:33:03;1.57;;;1.17;;
12385;SDS011;6257;57.634;18.310;2022-12-16T05:35:47;1.10;;;0.90;;
12385;SDS011;6257;57.634;18.310;2022-12-16T05:38:31;0.90;;;0.80;;
12385;SDS011;6257;57.634;18.310;2022-12-16T05:41:16;1.23;;;0.90;;
12385;SDS011;6257;57.634;18.310;2022-12-16T05:44:02;1.53;;;1.00;;
12385;SDS011;6257;57.634;18.310;2022-12-16T05:46:47;1.10;;;1.00;;
12385;SDS011;6257;57.634;18.310;2022-12-16T05:49:34;1.47;;;1.10;;
12385;SDS011;6257;57.634;18.310;2022-12-16T05:52:18;1.10;;;1.00;;
12385;SDS011;6257;57.634;18.310;2022-12-16T05:55:03;2.60;;;1.20;;
12385;SDS011;6257;57.634;18.310;2022-12-16T05:57:48;1.70;;;1.17;;
12385;SDS011;6257;57.634;18.310;2022-12-16T06:00:34;2.50;;;1.10;;
12385;SDS011;6257;57.634;18.310;2022-12-16T06:03:18;1.07;;;1.00;;
12385;SDS011;6257;57.634;18.310;2022-12-16T06:06:03;3.33;;;2.00;;
12385;SDS011;6257;57.634;18.310;2022-12-16T06:08:47;2.47;;;1.60;;
12385;SDS011;6257;57.634;18.310;2022-12-16T06:11:31;4.00;;;2.20;;
12385;SDS011;6257;57.634;18.310;2022-12-16T06:14:15;1.83;;;1.37;;
12385;SDS011;6257;57.634;18.310;2022-12-16T06:17:01;1.60;;;1.50;;
12385;SDS011;6257;57.634;18.310;2022-12-16T06:19:46;2.57;;;1.30;;
12385;SDS011;6257;57.634;18.310;2022-12-16T06:22:30;2.03;;;1.20;;
12385;SDS011;6257;57.634;18.310;2022-12-16T06:25:14;4.40;;;1.10;;
12385;SDS011;6257;57.634;18.310;2022-12-16T06:28:00;2.70;;;1.20;;
12385;SDS011;6257;57.634;18.310;2022-12-16T06:30:44;2.10;;;1.00;;
12385;SDS011;6257;57.634;18.310;2022-12-16T06:33:30;1.73;;;1.20;;
12385;SDS011;6257;57.634;18.310;2022-12-16T06:36:14;3.37;;;2.47;;
12385;SDS011;6257;57.634;18.310;2022-12-16T06:39:07;3.47;;;2.20;;
12385;SDS011;6257;57.634;18.310;2022-12-16T06:41:51;1.30;;;1.20;;
12385;SDS011;6257;57.634;18.310;2022-12-16T06:44:35;1.37;;;1.13;;
12385;SDS011;6257;57.634;18.310;2022-12-16T06:47:20;1.43;;;1.13;;
12385;SDS011;6257;57.634;18.310;2022-12-16T06:50:05;1.57;;;1.30;;
12385;SDS011;6257;57.634;18.310;2022-12-16T06:52:51;1.57;;;1.43;;
12385;SDS011;6257;57.634;18.310;2022-12-16T06:55:35;2.17;;;1.43;;
12385;SDS011;6257;57.634;18.310;2022-12-16T06:58:19;1.67;;;1.03;;
12385;SDS011;6257;57.634;18.310;2022-12-16T07:01:03;1.00;;;0.90;;
12385;SDS011;6257;57.634;18.310;2022-12-16T07:03:48;2.10;;;0.97;;
12385;SDS011;6257;57.634;18.310;2022-12-16T07:06:30;1.53;;;1.27;;
12385;SDS011;6257;57.634;18.310;2022-12-16T07:09:14;2.20;;;1.30;;
12385;SDS011;6257;57.634;18.310;2022-12-16T07:11:58;2.47;;;1.67;;
12385;SDS011;6257;57.634;18.310;2022-12-16T07:14:43;2.47;;;1.30;;
12385;SDS011;6257;57.634;18.310;2022-12-16T07:17:27;1.97;;;1.50;;
12385;SDS011;6257;57.634;18.310;2022-12-16T07:20:13;2.33;;;1.60;;
12385;SDS011;6257;57.634;18.310;2022-12-16T07:22:59;2.10;;;1.60;;
12385;SDS011;6257;57.634;18.310;2022-12-16T07:25:43;1.90;;;1.47;;
12385;SDS011;6257;57.634;18.310;2022-12-16T07:28:28;4.97;;;1.57;;
12385;SDS011;6257;57.634;18.310;2022-12-16T07:31:12;1.90;;;1.43;;
12385;SDS011;6257;57.634;18.310;2022-12-16T07:34:04;1.93;;;1.67;;
12385;SDS011;6257;57.634;18.310;2022-12-16T07:36:49;1.53;;;1.43;;
12385;SDS011;6257;57.634;18.310;2022-12-16T07:39:34;2.37;;;1.50;;
12385;SDS011;6257;57.634;18.310;2022-12-16T07:42:19;2.20;;;1.50;;
12385;SDS011;6257;57.634;18.310;2022-12-16T07:45:03;1.40;;;1.30;;
12385;SDS011;6257;57.634;18.310;2022-12-16T07:47:48;2.33;;;1.40;;
12385;SDS011;6257;57.634;18.310;2022-12-16T07:50:34;2.00;;;1.80;;
12385;SDS011;6257;57.634;18.310;2022-12-16T07:53:19;2.70;;;1.30;;
12385;SDS011;6257;57.634;18.310;2022-12-16T07:56:05;2.00;;;1.23;;
12385;SDS011;6257;57.634;18.310;2022-12-16T07:58:49;1.73;;;1.30;;
12385;SDS011;6257;57.634;18.310;2022-12-16T08:01:34;2.63;;;1.53;;
12385;SDS011;6257;57.634;18.310;2022-12-16T08:04:18;2.23;;;1.53;;
12385;SDS011;6257;57.634;18.310;2022-12-16T08:06:59;1.87;;;1.50;;
12385;SDS011;6257;57.634;18.310;2022-12-16T08:09:43;1.53;;;1.20;;
12385;SDS011;6257;57.634;18.310;2022-12-16T08:12:29;2.07;;;1.40;;
12385;SDS011;6257;57.634;18.310;2022-12-16T08:15:13;1.77;;;1.40;;
12385;SDS011;6257;57.634;18.310;2022-12-16T08:17:57;2.10;;;1.50;;
12385;SDS011;6257;57.634;18.310;2022-12-16T08:20:41;4.67;;;2.00;;
12385;SDS011;6257;57.634;18.310;2022-12-16T08:23:25;2.00;;;1.40;;
12385;SDS011;6257;57.634;18.310;2022-12-16T08:26:10;1.90;;;1.20;;
12385;SDS011;6257;57.634;18.310;2022-12-16T08:28:56;2.70;;;1.80;;
12385;SDS011;6257;57.634;18.310;2022-12-16T08:31:40;2.20;;;1.60;;
12385;SDS011;6257;57.634;18.310;2022-12-16T08:34:24;3.33;;;2.00;;
12385;SDS011;6257;57.634;18.310;2022-12-16T08:37:08;1.90;;;1.60;;
12385;SDS011;6257;57.634;18.310;2022-12-16T08:39:53;2.50;;;1.60;;
12385;SDS011;6257;57.634;18.310;2022-12-16T08:42:37;1.70;;;1.60;;
12385;SDS011;6257;57.634;18.310;2022-12-16T08:45:23;3.27;;;2.10;;
12385;SDS011;6257;57.634;18.310;2022-12-16T08:48:08;2.63;;;1.67;;
12385;SDS011;6257;57.634;18.310;2022-12-16T08:50:53;2.87;;;2.00;;
12385;SDS011;6257;57.634;18.310;2022-12-16T08:53:38;4.23;;;1.90;;
12385;SDS011;6257;57.634;18.310;2022-12-16T08:56:22;2.67;;;2.03;;
12385;SDS011;6257;57.634;18.310;2022-12-16T08:59:07;2.23;;;1.70;;
12385;SDS011;6257;57.634;18.310;2022-12-16T09:01:52;3.63;;;1.90;;
12385;SDS011;6257;57.634;18.310;2022-12-16T09:04:36;2.00;;;1.53;;
12385;SDS011;6257;57.634;18.310;2022-12-16T09:07:21;4.33;;;2.17;;
12385;SDS011;6257;57.634;18.310;2022-12-16T09:10:05;4.30;;;1.60;;
12385;SDS011;6257;57.634;18.310;2022-12-16T09:12:50;3.40;;;1.80;;
12385;SDS011;6257;57.634;18.310;2022-12-16T09:15:34;2.07;;;1.60;;
12385;SDS011;6257;57.634;18.310;2022-12-16T09:18:19;2.03;;;1.40;;
12385;SDS011;6257;57.634;18.310;2022-12-16T09:21:08;1.87;;;1.40;;
12385;SDS011;6257;57.634;18.310;2022-12-16T09:23:53;1.40;;;1.30;;
12385;SDS011;6257;57.634;18.310;2022-12-16T09:26:37;1.77;;;1.20;;
12385;SDS011;6257;57.634;18.310;2022-12-16T09:29:21;2.10;;;1.53;;
12385;SDS011;6257;57.634;18.310;2022-12-16T09:32:05;3.07;;;1.60;;
12385;SDS011;6257;57.634;18.310;2022-12-16T09:34:51;4.10;;;1.43;;
12385;SDS011;6257;57.634;18.310;2022-12-16T09:37:35;1.93;;;1.27;;
12385;SDS011;6257;57.634;18.310;2022-12-16T09:40:19;1.70;;;1.20;;
12385;SDS011;6257;57.634;18.310;2022-12-16T09:43:05;1.77;;;1.17;;
12385;SDS011;6257;57.634;18.310;2022-12-16T09:45:56;1.90;;;1.50;;
12385;SDS011;6257;57.634;18.310;2022-12-16T09:48:47;1.87;;;1.40;;
12385;SDS011;6257;57.634;18.310;2022-12-16T09:51:40;1.60;;;1.07;;
12385;SDS011;6257;57.634;18.310;2022-12-16T09:54:27;2.00;;;1.40;;
12385;SDS011;6257;57.634;18.310;2022-12-16T09:57:16;1.33;;;1.17;;
12385;SDS011;6257;57.634;18.310;2022-12-16T10:00:03;6.07;;;2.90;;
12385;SDS011;6257;57.634;18.310;2022-12-16T10:02:50;5.37;;;2.23;;
12385;SDS011;6257;57.634;18.310;2022-12-16T10:05:36;4.37;;;1.80;;
12385;SDS011;6257;57.634;18.310;2022-12-16T10:08:32;2.60;;;1.33;;
12385;SDS011;6257;57.634;18.310;2022-12-16T10:11:25;1.90;;;1.10;;
12385;SDS011;6257;57.634;18.310;2022-12-16T10:14:19;1.77;;;1.50;;
12385;SDS011;6257;57.634;18.310;2022-12-16T10:17:11;0.80;;;0.80;;
12385;SDS011;6257;57.634;18.310;2022-12-16T10:20:00;1.30;;;0.90;;
12385;SDS011;6257;57.634;18.310;2022-12-16T10:22:54;0.70;;;0.70;;
12385;SDS011;6257;57.634;18.310;2022-12-16T10:25:45;2.20;;;1.20;;
12385;SDS011;6257;57.634;18.310;2022-12-16T10:28:40;1.17;;;0.90;;
12385;SDS011;6257;57.634;18.310;2022-12-16T10:31:28;1.20;;;0.90;;
12385;SDS011;6257;57.634;18.310;2022-12-16T10:34:13;1.20;;;0.80;;
12385;SDS011;6257;57.634;18.310;2022-12-16T10:37:00;1.40;;;1.00;;
12385;SDS011;6257;57.634;18.310;2022-12-16T10:39:46;0.63;;;0.63;;
12385;SDS011;6257;57.634;18.310;2022-12-16T10:42:36;0.90;;;0.80;;
12385;SDS011;6257;57.634;18.310;2022-12-16T10:45:28;1.57;;;1.00;;
12385;SDS011;6257;57.634;18.310;2022-12-16T10:48:14;1.00;;;0.80;;
12385;SDS011;6257;57.634;18.310;2022-12-16T10:51:04;1.30;;;0.93;;
12385;SDS011;6257;57.634;18.310;2022-12-16T10:53:55;1.00;;;0.80;;
12385;SDS011;6257;57.634;18.310;2022-12-16T10:56:48;0.90;;;0.60;;
12385;SDS011;6257;57.634;18.310;2022-12-16T10:59:40;1.13;;;0.70;;
12385;SDS011;6257;57.634;18.310;2022-12-16T11:02:26;1.03;;;0.63;;
12385;SDS011;6257;57.634;18.310;2022-12-16T11:05:21;1.20;;;0.87;;
12385;SDS011;6257;57.634;18.310;2022-12-16T11:08:22;0.67;;;0.60;;
12385;SDS011;6257;57.634;18.310;2022-12-16T11:11:13;1.33;;;0.67;;
12385;SDS011;6257;57.634;18.310;2022-12-16T11:17:12;1.03;;;0.77;;
12385;SDS011;6257;57.634;18.310;2022-12-16T11:20:10;0.70;;;0.70;;
12385;SDS011;6257;57.634;18.310;2022-12-16T11:23:12;1.53;;;0.70;;
12385;SDS011;6257;57.634;18.310;2022-12-16T11:26:06;1.00;;;0.67;;
12385;SDS011;6257;57.634;18.310;2022-12-16T11:29:01;1.30;;;0.90;;
12385;SDS011;6257;57.634;18.310;2022-12-16T11:31:47;1.00;;;0.80;;
12385;SDS011;6257;57.634;18.310;2022-12-16T11:34:38;1.53;;;0.70;;
12385;SDS011;6257;57.634;18.310;2022-12-16T11:37:23;1.13;;;0.73;;
12385;SDS011;6257;57.634;18.310;2022-12-16T11:40:11;0.83;;;0.70;;
12385;SDS011;6257;57.634;18.310;2022-12-16T11:42:59;1.00;;;0.90;;
12385;SDS011;6257;57.634;18.310;2022-12-16T11:46:03;1.17;;;0.80;;
12385;SDS011;6257;57.634;18.310;2022-12-16T11:48:53;1.10;;;0.90;;
12385;SDS011;6257;57.634;18.310;2022-12-16T11:51:42;0.77;;;0.77;;
12385;SDS011;6257;57.634;18.310;2022-12-16T11:54:35;0.83;;;0.70;;
12385;SDS011;6257;57.634;18.310;2022-12-16T11:57:27;0.80;;;0.60;;
12385;SDS011;6257;57.634;18.310;2022-12-16T12:00:21;0.67;;;0.67;;
12385;SDS011;6257;57.634;18.310;2022-12-16T12:03:06;0.80;;;0.80;;
12385;SDS011;6257;57.634;18.310;2022-12-16T12:05:57;0.87;;;0.77;;
12385;SDS011;6257;57.634;18.310;2022-12-16T12:08:49;0.73;;;0.73;;
12385;SDS011;6257;57.634;18.310;2022-12-16T12:11:42;2.20;;;1.10;;
12385;SDS011;6257;57.634;18.310;2022-12-16T12:14:33;2.97;;;1.10;;
12385;SDS011;6257;57.634;18.310;2022-12-16T12:17:30;1.23;;;1.07;;
12385;SDS011;6257;57.634;18.310;2022-12-16T12:20:26;2.43;;;1.20;;
12385;SDS011;6257;57.634;18.310;2022-12-16T12:23:21;1.20;;;0.93;;
12385;SDS011;6257;57.634;18.310;2022-12-16T12:26:18;1.47;;;0.93;;
12385;SDS011;6257;57.634;18.310;2022-12-16T12:29:10;1.43;;;1.10;;
12385;SDS011;6257;57.634;18.310;2022-12-16T12:32:05;2.37;;;1.30;;
12385;SDS011;6257;57.634;18.310;2022-12-16T12:35:00;1.00;;;0.90;;
12385;SDS011;6257;57.634;18.310;2022-12-16T12:37:56;1.10;;;0.90;;
12385;SDS011;6257;57.634;18.310;2022-12-16T12:40:49;1.37;;;0.90;;
12385;SDS011;6257;57.634;18.310;2022-12-16T12:43:44;2.50;;;0.87;;
12385;SDS011;6257;57.634;18.310;2022-12-16T12:46:37;0.90;;;0.70;;
12385;SDS011;6257;57.634;18.310;2022-12-16T12:49:31;0.80;;;0.80;;
12385;SDS011;6257;57.634;18.310;2022-12-16T12:52:27;0.70;;;0.70;;
12385;SDS011;6257;57.634;18.310;2022-12-16T12:55:27;1.97;;;0.70;;
12385;SDS011;6257;57.634;18.310;2022-12-16T12:58:20;1.80;;;0.90;;
12385;SDS011;6257;57.634;18.310;2022-12-16T13:01:08;1.73;;;1.03;;
12385;SDS011;6257;57.634;18.310;2022-12-16T13:03:55;0.90;;;0.80;;
12385;SDS011;6257;57.634;18.310;2022-12-16T13:06:44;1.10;;;1.00;;
12385;SDS011;6257;57.634;18.310;2022-12-16T13:09:30;2.00;;;0.90;;
12385;SDS011;6257;57.634;18.310;2022-12-16T13:12:20;1.27;;;1.00;;
12385;SDS011;6257;57.634;18.310;2022-12-16T13:15:06;1.00;;;0.90;;
12385;SDS011;6257;57.634;18.310;2022-12-16T13:18:18;1.27;;;0.80;;
12385;SDS011;6257;57.634;18.310;2022-12-16T13:24:28;2.23;;;1.43;;
12385;SDS011;6257;57.634;18.310;2022-12-16T13:27:18;1.67;;;1.57;;
12385;SDS011;6257;57.634;18.310;2022-12-16T13:30:16;1.33;;;1.13;;
12385;SDS011;6257;57.634;18.310;2022-12-16T13:33:04;2.03;;;1.40;;
12385;SDS011;6257;57.634;18.310;2022-12-16T13:35:52;1.40;;;1.10;;
12385;SDS011;6257;57.634;18.310;2022-12-16T13:38:43;1.00;;;0.80;;
12385;SDS011;6257;57.634;18.310;2022-12-16T13:44:56;2.43;;;1.40;;
12385;SDS011;6257;57.634;18.310;2022-12-16T13:47:58;3.03;;;1.00;;
12385;SDS011;6257;57.634;18.310;2022-12-16T13:50:45;1.77;;;1.20;;
12385;SDS011;6257;57.634;18.310;2022-12-16T13:53:33;1.93;;;0.90;;
12385;SDS011;6257;57.634;18.310;2022-12-16T13:56:22;1.77;;;1.00;;
12385;SDS011;6257;57.634;18.310;2022-12-16T13:59:13;1.83;;;1.50;;
12385;SDS011;6257;57.634;18.310;2022-12-16T14:02:01;1.60;;;1.40;;
12385;SDS011;6257;57.634;18.310;2022-12-16T14:04:56;1.43;;;1.10;;
12385;SDS011;6257;57.634;18.310;2022-12-16T14:07:41;1.60;;;1.10;;
12385;SDS011;6257;57.634;18.310;2022-12-16T14:10:27;1.67;;;1.30;;
12385;SDS011;6257;57.634;18.310;2022-12-16T14:13:14;2.73;;;1.40;;
12385;SDS011;6257;57.634;18.310;2022-12-16T14:16:05;2.10;;;1.33;;
12385;SDS011;6257;57.634;18.310;2022-12-16T14:18:59;1.70;;;1.27;;
12385;SDS011;6257;57.634;18.310;2022-12-16T14:21:55;1.73;;;1.60;;
12385;SDS011;6257;57.634;18.310;2022-12-16T14:24:47;1.97;;;1.50;;
12385;SDS011;6257;57.634;18.310;2022-12-16T14:27:33;1.93;;;1.43;;
12385;SDS011;6257;57.634;18.310;2022-12-16T14:30:19;2.13;;;1.20;;
12385;SDS011;6257;57.634;18.310;2022-12-16T14:33:15;1.07;;;0.80;;
12385;SDS011;6257;57.634;18.310;2022-12-16T14:36:00;2.23;;;1.20;;
12385;SDS011;6257;57.634;18.310;2022-12-16T14:38:46;1.27;;;0.93;;
12385;SDS011;6257;57.634;18.310;2022-12-16T14:41:31;1.43;;;0.80;;
12385;SDS011;6257;57.634;18.310;2022-12-16T14:44:18;1.00;;;0.90;;
12385;SDS011;6257;57.634;18.310;2022-12-16T14:47:04;2.00;;;0.90;;
12385;SDS011;6257;57.634;18.310;2022-12-16T14:49:54;2.87;;;1.00;;
12385;SDS011;6257;57.634;18.310;2022-12-16T14:52:38;3.23;;;1.33;;
12385;SDS011;6257;57.634;18.310;2022-12-16T14:55:25;2.70;;;1.30;;
12385;SDS011;6257;57.634;18.310;2022-12-16T14:58:12;1.73;;;1.20;;
12385;SDS011;6257;57.634;18.310;2022-12-16T15:00:59;4.03;;;1.33;;
12385;SDS011;6257;57.634;18.310;2022-12-16T15:03:48;1.67;;;1.17;;
12385;SDS011;6257;57.634;18.310;2022-12-16T15:06:33;4.93;;;1.70;;
12385;SDS011;6257;57.634;18.310;2022-12-16T15:09:22;2.40;;;1.30;;
12385;SDS011;6257;57.634;18.310;2022-12-16T15:12:09;1.27;;;1.10;;
12385;SDS011;6257;57.634;18.310;2022-12-16T15:14:56;1.43;;;1.03;;
12385;SDS011;6257;57.634;18.310;2022-12-16T15:20:44;1.27;;;1.10;;
12385;SDS011;6257;57.634;18.310;2022-12-16T15:23:33;1.10;;;0.90;;
12385;SDS011;6257;57.634;18.310;2022-12-16T15:26:21;1.60;;;1.00;;
12385;SDS011;6257;57.634;18.310;2022-12-16T15:32:21;1.80;;;0.80;;
12385;SDS011;6257;57.634;18.310;2022-12-16T15:35:23;1.10;;;1.00;;
12385;SDS011;6257;57.634;18.310;2022-12-16T15:38:11;2.10;;;0.77;;
12385;SDS011;6257;57.634;18.310;2022-12-16T15:41:00;1.60;;;1.17;;
12385;SDS011;6257;57.634;18.310;2022-12-16T15:43:45;3.57;;;1.70;;
12385;SDS011;6257;57.634;18.310;2022-12-16T15:46:31;3.50;;;1.70;;
12385;SDS011;6257;57.634;18.310;2022-12-16T15:49:17;2.13;;;1.80;;
12385;SDS011;6257;57.634;18.310;2022-12-16T15:55:00;3.53;;;2.33;;
12385;SDS011;6257;57.634;18.310;2022-12-16T15:57:53;4.33;;;3.57;;
12385;SDS011;6257;57.634;18.310;2022-12-16T16:00:37;5.00;;;3.00;;
12385;SDS011;6257;57.634;18.310;2022-12-16T16:03:22;3.97;;;3.57;;
12385;SDS011;6257;57.634;18.310;2022-12-16T16:06:13;3.87;;;2.90;;
12385;SDS011;6257;57.634;18.310;2022-12-16T16:09:11;2.80;;;1.77;;
12385;SDS011;6257;57.634;18.310;2022-12-16T16:11:58;3.43;;;1.80;;
12385;SDS011;6257;57.634;18.310;2022-12-16T16:14:42;2.53;;;1.60;;
12385;SDS011;6257;57.634;18.310;2022-12-16T16:17:27;1.63;;;1.53;;
12385;SDS011;6257;57.634;18.310;2022-12-16T16:20:12;2.10;;;1.70;;
12385;SDS011;6257;57.634;18.310;2022-12-16T16:22:58;2.90;;;1.50;;
12385;SDS011;6257;57.634;18.310;2022-12-16T16:25:54;1.90;;;1.40;;
12385;SDS011;6257;57.634;18.310;2022-12-16T16:28:41;2.07;;;1.70;;
12385;SDS011;6257;57.634;18.310;2022-12-16T16:31:26;2.70;;;2.20;;
12385;SDS011;6257;57.634;18.310;2022-12-16T16:34:11;4.27;;;1.77;;
12385;SDS011;6257;57.634;18.310;2022-12-16T16:36:55;3.23;;;2.40;;
12385;SDS011;6257;57.634;18.310;2022-12-16T16:39:41;3.23;;;2.57;;
12385;SDS011;6257;57.634;18.310;2022-12-16T16:42:26;3.00;;;2.20;;
12385;SDS011;6257;57.634;18.310;2022-12-16T16:45:12;2.87;;;2.10;;